createdAt,value
2023-04-11T00:00:28.377Z,45.47
2023-04-11T00:03:30.247Z,45.70
2023-04-11T00:06:33.811Z,45.66
2023-04-11T00:09:35.737Z,45.56
2023-04-11T00:12:37.351Z,45.77
2023-04-11T00:15:39.457Z,45.89
2023-04-11T00:18:44.882Z,45.74
2023-04-11T00:21:46.504Z,45.92
2023-04-11T00:24:48.031Z,45.88
2023-04-11T00:27:49.796Z,46.00
2023-04-11T00:30:51.477Z,45.88
2023-04-11T00:33:53.097Z,45.93
2023-04-11T00:36:54.996Z,45.91
2023-04-11T00:39:56.622Z,45.97
2023-04-11T00:42:58.238Z,46.05
2023-04-11T00:46:01.026Z,46.28
2023-04-11T00:49:03.018Z,45.93
2023-04-11T00:52:05.132Z,46.18
2023-04-11T00:55:07.885Z,46.03
2023-04-11T00:58:09.561Z,46.15
2023-04-11T01:01:11.224Z,46.14
2023-04-11T01:04:13.607Z,46.28
2023-04-11T01:07:16.436Z,46.21
2023-04-11T01:10:19.260Z,46.41
2023-04-11T01:13:21.019Z,46.31
2023-04-11T01:16:22.597Z,46.45
2023-04-11T01:19:26.945Z,46.55
2023-04-11T01:22:30.353Z,46.40
2023-04-11T01:25:32.036Z,46.43
2023-04-11T01:28:33.596Z,46.43
2023-04-11T01:31:35.463Z,46.60
2023-04-11T01:34:40.311Z,46.58
2023-04-11T01:37:41.998Z,46.77
2023-04-11T01:40:45.646Z,46.91
2023-04-11T01:43:47.532Z,47.08
2023-04-11T01:46:49.116Z,47.00
2023-04-11T01:49:50.825Z,47.10
2023-04-11T01:52:54.816Z,47.08
2023-04-11T01:55:56.374Z,47.05
2023-04-11T01:58:59.314Z,47.01
2023-04-11T02:02:01.151Z,47.04
2023-04-11T02:05:03.545Z,47.03
2023-04-11T02:08:05.521Z,47.08
2023-04-11T02:11:08.183Z,47.05
2023-04-11T02:14:09.903Z,46.95
2023-04-11T02:17:12.252Z,47.05
2023-04-11T02:20:14.625Z,47.15
2023-04-11T02:23:16.319Z,47.10
2023-04-11T02:26:17.920Z,47.17
2023-04-11T02:29:19.511Z,47.00
2023-04-11T02:32:21.177Z,47.16
2023-04-11T02:35:22.987Z,46.96
2023-04-11T02:38:24.535Z,47.00
2023-04-11T02:41:26.300Z,47.14
2023-04-11T02:44:29.396Z,47.04
2023-04-11T02:47:31.202Z,47.17
2023-04-11T02:50:32.805Z,47.21
2023-04-11T02:53:34.358Z,47.28
2023-04-11T02:56:38.865Z,47.38
2023-04-11T02:59:40.726Z,47.31
2023-04-11T03:02:43.542Z,47.48
2023-04-11T03:05:47.006Z,47.52
2023-04-11T03:08:50.032Z,47.48
2023-04-11T03:11:51.630Z,47.55
2023-04-11T03:14:53.346Z,47.48
2023-04-11T03:17:54.947Z,47.67
2023-04-11T03:20:56.575Z,47.64
2023-04-11T03:23:58.257Z,47.68
2023-04-11T03:26:59.789Z,47.71
2023-04-11T03:30:01.480Z,47.80
2023-04-11T03:33:03.072Z,47.72
2023-04-11T03:36:05.829Z,47.98
2023-04-11T03:39:07.502Z,47.76
2023-04-11T03:42:09.095Z,47.88
2023-04-11T03:45:10.776Z,47.83
2023-04-11T03:48:12.526Z,47.94
2023-04-11T03:51:14.113Z,47.93
2023-04-11T03:54:15.946Z,48.02
2023-04-11T03:57:17.476Z,48.06
2023-04-11T04:00:20.795Z,47.93
2023-04-11T04:03:22.526Z,48.02
2023-04-11T04:06:24.315Z,47.91
2023-04-11T04:09:25.934Z,47.94
2023-04-11T04:12:27.492Z,48.00
2023-04-11T04:15:29.008Z,48.09
2023-04-11T04:18:30.570Z,48.00
2023-04-11T04:21:32.569Z,48.04
2023-04-11T04:24:38.421Z,48.04
2023-04-11T04:27:44.480Z,48.07
2023-04-11T04:30:54.393Z,48.07
2023-04-11T04:33:58.724Z,48.03
2023-04-11T04:37:02.088Z,48.29
2023-04-11T04:40:12.187Z,48.20
2023-04-11T04:43:20.167Z,48.03
2023-04-11T04:46:23.244Z,48.47
2023-04-11T04:49:24.843Z,48.53
2023-04-11T04:52:27.659Z,48.49
2023-04-11T04:55:30.309Z,48.22
2023-04-11T04:58:31.855Z,48.33
2023-04-11T05:01:33.531Z,48.41
2023-04-11T05:04:35.406Z,48.45
2023-04-11T05:07:36.957Z,48.60
2023-04-11T05:10:38.965Z,48.62
2023-04-11T05:13:41.130Z,48.53
2023-04-11T05:16:44.172Z,48.54
2023-04-11T05:19:46.647Z,48.60
2023-04-11T05:22:50.310Z,48.66
2023-04-11T05:25:51.894Z,48.62
2023-04-11T05:28:53.466Z,48.82
2023-04-11T05:31:54.988Z,48.89
2023-04-11T05:34:59.252Z,48.84
2023-04-11T05:38:01.280Z,48.81
2023-04-11T05:41:02.864Z,48.78
2023-04-11T05:44:04.434Z,48.83
2023-04-11T05:47:06.175Z,48.76
2023-04-11T05:50:08.531Z,48.87
2023-04-11T05:53:10.092Z,48.74
2023-04-11T05:56:12.940Z,48.81
2023-04-11T05:59:14.561Z,48.92
2023-04-11T06:02:16.802Z,48.96
2023-04-11T06:05:20.850Z,48.89
2023-04-11T06:08:23.028Z,49.00
2023-04-11T06:11:27.210Z,49.02
2023-04-11T06:14:28.767Z,49.08
2023-04-11T06:17:30.657Z,48.76
2023-04-11T06:20:32.233Z,49.00
2023-04-11T06:23:33.778Z,49.13
2023-04-11T06:26:35.396Z,49.00
2023-04-11T06:29:41.493Z,49.22
2023-04-11T06:32:43.250Z,48.94
2023-04-11T06:35:44.822Z,49.13
2023-04-11T06:38:46.409Z,49.06
2023-04-11T06:41:48.288Z,49.05
2023-04-11T06:44:50.356Z,49.02
2023-04-11T06:47:52.124Z,49.13
2023-04-11T06:50:54.166Z,49.19
2023-04-11T06:53:55.936Z,49.34
2023-04-11T06:56:58.920Z,49.24
2023-04-11T07:00:01.314Z,49.24
2023-04-11T07:03:07.839Z,49.25
2023-04-11T07:06:09.608Z,49.43
2023-04-11T07:09:12.624Z,49.32
2023-04-11T07:12:14.172Z,49.40
2023-04-11T07:15:16.041Z,49.49
2023-04-11T07:18:17.618Z,49.35
2023-04-11T07:21:19.212Z,49.65
2023-04-11T07:24:21.195Z,49.38
2023-04-11T07:27:23.458Z,49.45
2023-04-11T07:30:25.148Z,49.37
2023-04-11T07:33:27.308Z,49.52
2023-04-11T07:36:28.884Z,49.43
2023-04-11T07:39:30.428Z,49.40
2023-04-11T07:42:32.019Z,49.51
2023-04-11T07:45:34.229Z,49.48
2023-04-11T07:48:35.907Z,49.42
2023-04-11T07:51:37.554Z,49.29
2023-04-11T07:54:39.216Z,49.60
2023-04-11T07:57:40.784Z,49.69
2023-04-11T08:00:43.249Z,49.48
2023-04-11T08:03:45.289Z,49.65
2023-04-11T08:06:47.112Z,49.64
2023-04-11T08:09:48.655Z,49.52
2023-04-11T08:12:50.653Z,49.64
2023-04-11T08:15:52.236Z,49.66
2023-04-11T08:18:53.767Z,49.75
2023-04-11T08:21:55.447Z,49.83
2023-04-11T08:24:57.076Z,49.81
2023-04-11T08:27:58.666Z,49.73
2023-04-11T08:31:02.476Z,49.94
2023-04-11T08:34:06.730Z,49.85
2023-04-11T08:37:08.905Z,49.94
2023-04-11T08:40:11.672Z,49.92
2023-04-11T08:43:13.415Z,50.21
2023-04-11T08:46:15.005Z,49.98
2023-04-11T08:49:16.624Z,50.04
2023-04-11T08:52:19.434Z,50.02
2023-04-11T08:55:21.056Z,50.10
2023-04-11T08:58:23.060Z,50.16
2023-04-11T09:01:33.851Z,50.20
2023-04-11T09:04:42.909Z,50.06
2023-04-11T09:07:50.697Z,50.16
2023-04-11T09:11:01.694Z,50.00
2023-04-11T09:14:08.151Z,50.08
2023-04-11T09:17:13.605Z,50.21
2023-04-11T09:20:26.175Z,50.22
2023-04-11T09:23:27.859Z,50.15
2023-04-11T09:26:30.590Z,50.31
2023-04-11T09:29:39.207Z,50.08
2023-04-11T09:32:40.909Z,50.21
2023-04-11T09:35:42.508Z,50.12
2023-04-11T09:38:44.276Z,50.19
2023-04-11T09:41:46.178Z,50.29
2023-04-11T09:44:47.821Z,50.21
2023-04-11T09:47:51.223Z,50.18
2023-04-11T09:50:53.544Z,50.30
2023-04-11T09:53:56.229Z,50.19
2023-04-11T09:56:59.170Z,50.34
2023-04-11T10:00:14.111Z,50.34
2023-04-11T10:03:16.865Z,50.41
2023-04-11T10:06:45.691Z,50.16
2023-04-11T10:09:47.952Z,50.33
2023-04-11T10:12:50.458Z,50.14
2023-04-11T10:16:13.687Z,50.28
2023-04-11T10:19:18.579Z,50.33
2023-04-11T10:22:39.035Z,50.09
2023-04-11T10:26:00.701Z,50.28
2023-04-11T10:29:02.274Z,50.07
2023-04-11T10:32:19.908Z,50.23
2023-04-11T10:35:23.078Z,50.29
2023-04-11T10:38:38.278Z,50.21
2023-04-11T10:41:39.828Z,50.47
2023-04-11T10:44:41.408Z,50.27
2023-04-11T10:47:43.508Z,50.61
2023-04-11T10:50:45.294Z,50.45
2023-04-11T10:53:47.322Z,50.48
2023-04-11T10:56:52.227Z,50.44
2023-04-11T10:59:53.793Z,50.47
2023-04-11T11:02:55.865Z,50.85
2023-04-11T11:06:05.661Z,50.53
2023-04-11T11:09:26.378Z,50.55
2023-04-11T11:12:27.970Z,50.44
2023-04-11T11:15:30.050Z,50.43
2023-04-11T11:18:31.661Z,50.43
2023-04-11T11:21:34.758Z,50.30
2023-04-11T11:24:36.311Z,50.46
2023-04-11T11:27:38.003Z,50.46
2023-04-11T11:30:52.161Z,50.39
2023-04-11T11:33:58.226Z,50.40
2023-04-11T11:37:07.179Z,50.43
2023-04-11T11:40:13.282Z,50.24
2023-04-11T11:43:16.327Z,50.35
2023-04-11T11:46:18.076Z,50.34
2023-04-11T11:49:19.666Z,50.31
2023-04-11T11:52:41.515Z,50.27
2023-04-11T11:55:43.437Z,50.27
2023-04-11T11:58:46.079Z,50.64
2023-04-11T12:01:47.794Z,50.63
2023-04-11T12:04:49.832Z,50.34
2023-04-11T12:07:55.038Z,50.44
2023-04-11T12:10:56.688Z,50.44
2023-04-11T12:13:58.497Z,50.41
2023-04-11T12:17:00.403Z,50.55
2023-04-11T12:20:05.107Z,50.55
2023-04-11T12:23:06.714Z,50.35
2023-04-11T12:26:08.267Z,50.24
2023-04-11T12:29:09.825Z,50.29
2023-04-11T12:32:11.385Z,50.02
2023-04-11T12:35:13.401Z,50.01
2023-04-11T12:38:17.551Z,50.11
2023-04-11T12:41:32.385Z,50.10
2023-04-11T12:44:34.648Z,50.17
2023-04-11T12:47:37.117Z,49.80
2023-04-11T12:50:39.339Z,50.05
2023-04-11T12:53:41.742Z,49.99
2023-04-11T12:56:43.956Z,49.74
2023-04-11T12:59:46.134Z,49.86
2023-04-11T13:02:49.021Z,49.88
2023-04-11T13:05:51.904Z,49.77
2023-04-11T13:08:54.780Z,49.69
2023-04-11T13:11:57.893Z,49.66
2023-04-11T13:15:00.149Z,49.66
2023-04-11T13:18:01.928Z,49.75
2023-04-11T13:21:03.566Z,49.84
2023-04-11T13:24:05.340Z,49.99
2023-04-11T13:27:06.851Z,49.89
2023-04-11T13:30:10.546Z,49.69
2023-04-11T13:33:12.203Z,49.73
2023-04-11T13:36:14.293Z,49.74
2023-04-11T13:39:16.399Z,49.82
2023-04-11T13:42:18.640Z,49.72
2023-04-11T13:45:20.455Z,49.56
2023-04-11T13:48:21.990Z,49.60
2023-04-11T13:51:23.590Z,49.48
2023-04-11T13:54:26.186Z,49.71
2023-04-11T13:57:28.549Z,49.63
2023-04-11T14:00:30.213Z,49.70
2023-04-11T14:03:33.746Z,49.81
2023-04-11T14:06:36.814Z,49.67
2023-04-11T14:09:38.370Z,49.53
2023-04-11T14:12:40.022Z,49.64
2023-04-11T14:15:41.575Z,49.52
2023-04-11T14:18:43.254Z,49.65
2023-04-11T14:21:44.873Z,49.50
2023-04-11T14:24:46.543Z,49.81
2023-04-11T14:27:48.151Z,49.80
2023-04-11T14:30:50.307Z,49.84
2023-04-11T14:33:54.407Z,49.92
2023-04-11T14:36:56.045Z,49.65
2023-04-11T14:39:58.131Z,49.76
2023-04-11T14:42:59.694Z,49.72
2023-04-11T14:46:01.279Z,49.83
2023-04-11T14:49:03.212Z,49.79
2023-04-11T14:52:05.073Z,49.79
2023-04-11T14:55:07.488Z,49.68
2023-04-11T14:58:09.094Z,49.70
2023-04-11T15:01:11.173Z,49.59
2023-04-11T15:04:13.335Z,49.60
2023-04-11T15:07:14.954Z,49.61
2023-04-11T15:10:18.620Z,49.63
2023-04-11T15:13:21.914Z,49.77
2023-04-11T15:16:23.491Z,49.84
2023-04-11T15:19:25.716Z,49.79
2023-04-11T15:22:27.335Z,49.60
2023-04-11T15:25:28.889Z,49.91
2023-04-11T15:28:35.868Z,49.77
2023-04-11T15:31:38.630Z,49.81
2023-04-11T15:34:41.648Z,49.83
2023-04-11T15:37:43.309Z,49.77
2023-04-11T15:40:44.972Z,49.67
2023-04-11T15:43:46.540Z,49.77
2023-04-11T15:46:49.442Z,49.61
2023-04-11T15:49:51.125Z,49.47
2023-04-11T15:52:52.911Z,49.62
2023-04-11T15:55:54.567Z,49.46
2023-04-11T15:58:56.500Z,49.47
2023-04-11T16:01:58.143Z,49.39
2023-04-11T16:05:01.370Z,49.28
2023-04-11T16:08:03.311Z,49.39
2023-04-11T16:11:05.084Z,49.39
2023-04-11T16:14:06.844Z,49.46
2023-04-11T16:17:08.468Z,49.54
2023-04-11T16:20:14.107Z,49.51
2023-04-11T16:23:15.959Z,49.48
2023-04-11T16:26:17.581Z,49.45
2023-04-11T16:29:19.914Z,49.44
2023-04-11T16:32:22.559Z,49.43
2023-04-11T16:35:25.154Z,49.50
2023-04-11T16:38:27.491Z,49.35
2023-04-11T16:41:29.045Z,49.39
2023-04-11T16:44:31.257Z,49.27
2023-04-11T16:47:32.954Z,49.36
2023-04-11T16:50:35.298Z,49.33
2023-04-11T16:53:37.606Z,49.24
2023-04-11T16:56:39.213Z,49.21
2023-04-11T16:59:40.974Z,49.25
2023-04-11T17:02:42.725Z,49.22
2023-04-11T17:05:48.010Z,49.38
2023-04-11T17:08:49.956Z,49.42
2023-04-11T17:11:51.600Z,49.52
2023-04-11T17:14:53.192Z,49.42
2023-04-11T17:17:54.804Z,49.54
2023-04-11T17:20:56.519Z,49.36
2023-04-11T17:23:58.244Z,49.45
2023-04-11T17:26:59.865Z,49.48
2023-04-11T17:30:02.241Z,49.47
2023-04-11T17:33:04.224Z,49.39
2023-04-11T17:36:06.457Z,49.44
2023-04-11T17:39:09.818Z,49.39
2023-04-11T17:42:13.755Z,49.57
2023-04-11T17:45:18.532Z,49.47
2023-04-11T17:48:22.983Z,49.44
2023-04-11T17:51:24.542Z,49.31
2023-04-11T17:54:26.161Z,49.40
2023-04-11T17:57:28.470Z,49.49
2023-04-11T18:00:30.466Z,49.41
2023-04-11T18:03:34.926Z,49.40
2023-04-11T18:06:36.816Z,49.39
2023-04-11T18:09:38.419Z,49.71
2023-04-11T18:12:40.463Z,49.54
2023-04-11T18:15:42.417Z,49.84
2023-04-11T18:18:44.852Z,49.77
2023-04-11T18:21:48.860Z,49.79
2023-04-11T18:24:54.009Z,49.71
2023-04-11T18:27:55.651Z,49.66
2023-04-11T18:30:57.266Z,49.63
2023-04-11T18:33:59.444Z,49.60
2023-04-11T18:37:01.663Z,49.79
2023-04-11T18:40:14.011Z,49.73
2023-04-11T18:43:15.832Z,49.69
2023-04-11T18:46:17.494Z,49.71
2023-04-11T18:49:19.167Z,49.54
2023-04-11T18:52:20.855Z,49.80
2023-04-11T18:55:22.725Z,49.74
2023-04-11T18:58:26.044Z,49.83
2023-04-11T19:01:28.320Z,49.76
2023-04-11T19:04:30.260Z,49.63
2023-04-11T19:07:32.028Z,49.94
2023-04-11T19:10:33.550Z,49.79
2023-04-11T19:13:35.110Z,49.87
2023-04-11T19:16:36.886Z,49.79
2023-04-11T19:19:38.531Z,49.84
2023-04-11T19:22:41.108Z,49.77
2023-04-11T19:25:42.973Z,49.95
2023-04-11T19:28:45.356Z,49.72
2023-04-11T19:31:46.984Z,49.90
2023-04-11T19:34:49.672Z,49.99
2023-04-11T19:37:51.400Z,50.02
2023-04-11T19:40:53.070Z,49.89
2023-04-11T19:43:55.070Z,49.96
2023-04-11T19:46:57.408Z,50.00
2023-04-11T19:50:01.083Z,49.94
2023-04-11T19:53:03.352Z,50.01
2023-04-11T19:56:07.133Z,50.04
2023-04-11T19:59:08.670Z,49.90
2023-04-11T20:02:10.311Z,49.91
2023-04-11T20:05:17.382Z,49.87
2023-04-11T20:08:21.554Z,49.92
2023-04-11T20:11:23.952Z,50.02
2023-04-11T20:14:25.919Z,50.17
2023-04-11T20:17:27.565Z,49.92
2023-04-11T20:20:29.489Z,49.95
2023-04-11T20:23:33.703Z,50.00
2023-04-11T20:26:35.513Z,49.98
2023-04-11T20:29:38.362Z,50.10
2023-04-11T20:32:41.344Z,50.03
2023-04-11T20:35:43.256Z,50.08
2023-04-11T20:38:44.870Z,50.07
2023-04-11T20:41:46.684Z,50.09
2023-04-11T20:44:48.566Z,50.04
2023-04-11T20:47:50.812Z,50.19
2023-04-11T20:50:55.949Z,50.24
2023-04-11T20:53:57.673Z,50.08
2023-04-11T20:56:59.498Z,50.10
2023-04-11T21:00:02.735Z,50.16
2023-04-11T21:03:04.419Z,50.31
2023-04-11T21:06:07.653Z,50.19
2023-04-11T21:09:09.561Z,50.12
2023-04-11T21:12:11.356Z,50.18
2023-04-11T21:15:12.931Z,50.25
2023-04-11T21:18:14.477Z,50.23
2023-04-11T21:21:16.430Z,50.23
2023-04-11T21:24:17.977Z,50.80
2023-04-11T21:27:19.701Z,50.42
2023-04-11T21:30:21.436Z,50.28
2023-04-11T21:33:23.040Z,50.23
2023-04-11T21:36:24.601Z,50.27
2023-04-11T21:39:26.350Z,50.17
2023-04-11T21:42:27.952Z,50.33
2023-04-11T21:45:29.929Z,50.37
2023-04-11T21:48:31.461Z,50.41
2023-04-11T21:51:33.025Z,50.41
2023-04-11T21:54:35.014Z,50.31
2023-04-11T21:57:36.545Z,50.34
2023-04-11T22:00:38.256Z,50.33
2023-04-11T22:03:42.863Z,50.34
2023-04-11T22:06:47.763Z,50.40
2023-04-11T22:09:49.641Z,50.48
2023-04-11T22:12:53.978Z,50.19
2023-04-11T22:16:05.258Z,50.38
2023-04-11T22:19:07.083Z,50.48
2023-04-11T22:22:08.970Z,50.26
2023-04-11T22:25:10.595Z,50.28
2023-04-11T22:28:18.316Z,50.47
2023-04-11T22:31:23.118Z,50.32
2023-04-11T22:34:25.721Z,50.49
2023-04-11T22:37:27.308Z,50.39
2023-04-11T22:40:28.874Z,50.86
2023-04-11T22:43:30.733Z,50.71
2023-04-11T22:46:34.120Z,50.79
2023-04-11T22:49:42.188Z,50.94
2023-04-11T22:52:43.806Z,50.80
2023-04-11T22:55:45.352Z,50.62
2023-04-11T22:58:47.006Z,51.03
2023-04-11T23:01:48.551Z,51.10
2023-04-11T23:04:50.297Z,50.86
2023-04-11T23:07:52.008Z,51.00
2023-04-11T23:10:53.561Z,51.03
2023-04-11T23:13:55.342Z,51.29
2023-04-11T23:16:57.195Z,51.28
2023-04-11T23:20:01.856Z,51.34
2023-04-11T23:23:04.231Z,51.34
2023-04-11T23:26:06.117Z,51.48
2023-04-11T23:29:08.668Z,51.31
2023-04-11T23:32:10.288Z,51.66
2023-04-11T23:35:11.898Z,51.36
2023-04-11T23:38:13.422Z,51.49
2023-04-11T23:41:15.013Z,51.49
2023-04-11T23:44:16.617Z,51.44
2023-04-11T23:47:18.172Z,51.42
2023-04-11T23:50:19.974Z,51.53
2023-04-11T23:53:22.040Z,51.71
2023-04-11T23:56:23.971Z,51.75
2023-04-11T23:59:25.727Z,51.75
